createdAt,value
2023-03-12T00:02:17.959Z,4.22
2023-03-12T00:05:20.791Z,4.28
2023-03-12T00:08:23.091Z,3.35
2023-03-12T00:11:25.770Z,3.00
2023-03-12T00:14:28.210Z,4.82
2023-03-12T00:17:30.989Z,4.12
2023-03-12T00:20:33.402Z,4.45
2023-03-12T00:23:36.349Z,4.60
2023-03-12T00:26:38.822Z,3.60
2023-03-12T00:29:41.495Z,3.47
2023-03-12T00:32:44.051Z,4.72
2023-03-12T00:35:46.747Z,3.22
2023-03-12T00:38:49.403Z,4.97
2023-03-12T00:41:52.124Z,3.60
2023-03-12T00:44:54.920Z,3.35
2023-03-12T00:47:58.108Z,3.58
2023-03-12T00:51:00.566Z,5.15
2023-03-12T00:54:03.419Z,3.75
2023-03-12T00:57:06.306Z,5.03
2023-03-12T01:03:13.484Z,4.47
2023-03-12T01:06:16.199Z,3.42
2023-03-12T01:09:19.136Z,3.40
2023-03-12T01:12:21.767Z,4.93
2023-03-12T01:15:24.203Z,3.28
2023-03-12T01:18:26.873Z,3.65
2023-03-12T01:21:30.581Z,3.00
2023-03-12T01:24:33.381Z,3.72
2023-03-12T01:27:35.684Z,3.72
2023-03-12T01:30:38.540Z,3.10
2023-03-12T01:33:41.241Z,3.25
2023-03-12T01:36:45.152Z,3.00
2023-03-12T01:39:47.490Z,3.78
2023-03-12T01:42:58.418Z,3.42
2023-03-12T01:46:12.097Z,3.20
2023-03-12T01:49:27.178Z,4.82
2023-03-12T01:52:34.031Z,3.12
2023-03-12T01:55:36.957Z,3.75
2023-03-12T01:58:45.343Z,3.97
2023-03-12T02:01:49.931Z,4.68
2023-03-12T02:05:25.719Z,2.65
2023-03-12T02:08:28.616Z,3.12
2023-03-12T02:11:31.393Z,3.83
2023-03-12T02:14:34.841Z,2.75
2023-03-12T02:17:41.056Z,3.95
2023-03-12T02:21:15.975Z,4.25
2023-03-12T02:24:41.845Z,3.47
2023-03-12T02:27:45.319Z,3.35
2023-03-12T02:30:51.417Z,3.20
2023-03-12T02:33:56.013Z,3.50
2023-03-12T02:36:59.058Z,3.50
2023-03-12T02:40:13.698Z,5.05
2023-03-12T02:46:24.179Z,4.85
2023-03-12T02:49:30.488Z,4.65
2023-03-12T02:52:36.386Z,2.28
2023-03-12T02:55:39.160Z,4.78
2023-03-12T02:58:43.041Z,3.97
2023-03-12T03:01:46.286Z,4.95
2023-03-12T03:04:48.738Z,4.97
2023-03-12T03:07:51.429Z,3.58
2023-03-12T03:10:54.265Z,4.43
2023-03-12T03:13:57.245Z,4.13
2023-03-12T03:17:00.013Z,3.53
2023-03-12T03:20:05.821Z,5.33
2023-03-12T03:23:08.164Z,5.03
2023-03-12T03:26:10.949Z,4.20
2023-03-12T03:29:13.310Z,3.75
2023-03-12T03:32:16.133Z,6.25
2023-03-12T03:35:18.893Z,4.47
2023-03-12T03:38:23.357Z,4.03
2023-03-12T03:41:26.337Z,5.25
2023-03-12T03:44:30.406Z,8.07
2023-03-12T03:47:34.652Z,5.30
2023-03-12T03:50:39.850Z,4.40
2023-03-12T03:53:42.918Z,7.25
2023-03-12T03:56:47.576Z,5.28
2023-03-12T03:59:50.419Z,4.50
2023-03-12T04:02:53.195Z,4.68
2023-03-12T04:05:58.818Z,4.25
2023-03-12T04:09:02.079Z,4.75
2023-03-12T04:12:05.042Z,4.53
2023-03-12T04:15:09.098Z,4.75
2023-03-12T04:18:11.872Z,5.12
2023-03-12T04:21:15.462Z,5.07
2023-03-12T04:27:23.654Z,5.03
2023-03-12T04:30:26.329Z,6.00
2023-03-12T04:33:32.146Z,5.62
2023-03-12T04:36:35.364Z,4.78
2023-03-12T04:39:38.229Z,5.87
2023-03-12T04:42:41.735Z,5.82
2023-03-12T04:45:44.475Z,5.70
2023-03-12T04:48:47.370Z,5.68
2023-03-12T04:51:50.149Z,4.45
2023-03-12T04:54:54.525Z,6.18
2023-03-12T04:57:57.086Z,6.53
2023-03-12T05:01:00.614Z,6.50
2023-03-12T05:04:04.767Z,6.25
2023-03-12T05:07:07.654Z,5.70
2023-03-12T05:10:10.851Z,5.37
2023-03-12T05:13:21.870Z,7.10
2023-03-12T05:16:24.957Z,6.87
2023-03-12T05:19:27.762Z,9.32
2023-03-12T05:22:30.147Z,8.52
2023-03-12T05:25:32.872Z,9.10
2023-03-12T05:28:35.526Z,7.22
2023-03-12T05:31:38.819Z,7.33
2023-03-12T05:34:41.641Z,9.20
2023-03-12T05:37:47.962Z,7.75
2023-03-12T05:40:58.376Z,9.13
2023-03-12T05:44:01.508Z,6.95
2023-03-12T05:47:04.279Z,8.15
2023-03-12T05:50:07.352Z,6.85
2023-03-12T05:53:11.625Z,8.68
2023-03-12T05:56:17.087Z,8.73
2023-03-12T05:59:19.654Z,7.80
2023-03-12T06:02:22.444Z,7.70
2023-03-12T06:05:27.811Z,14.65
2023-03-12T06:08:30.500Z,16.30
2023-03-12T06:11:34.765Z,9.95
2023-03-12T06:14:37.156Z,11.02
2023-03-12T06:17:39.858Z,11.50
2023-03-12T06:20:42.665Z,8.52
2023-03-12T06:23:46.445Z,9.27
2023-03-12T06:26:49.040Z,8.60
2023-03-12T06:29:51.748Z,8.65
2023-03-12T06:32:55.187Z,7.30
2023-03-12T06:35:59.999Z,7.93
2023-03-12T06:39:06.188Z,8.43
2023-03-12T06:42:08.847Z,8.88
2023-03-12T06:45:11.449Z,5.40
2023-03-12T06:48:14.030Z,7.40
2023-03-12T06:51:17.656Z,8.95
2023-03-12T06:54:20.284Z,11.05
2023-03-12T06:57:22.820Z,7.87
2023-03-12T07:00:25.567Z,8.25
2023-03-12T07:03:27.933Z,6.28
2023-03-12T07:06:30.633Z,6.80
2023-03-12T07:09:33.054Z,6.80
2023-03-12T07:12:35.672Z,18.23
2023-03-12T07:15:38.119Z,9.77
2023-03-12T07:18:42.115Z,7.07
2023-03-12T07:21:44.415Z,8.85
2023-03-12T07:24:47.065Z,8.43
2023-03-12T07:27:49.415Z,6.72
2023-03-12T07:30:52.091Z,7.22
2023-03-12T07:33:54.679Z,7.30
2023-03-12T07:36:57.494Z,7.55
2023-03-12T07:40:00.211Z,7.47
2023-03-12T07:43:04.214Z,10.07
2023-03-12T07:46:07.829Z,8.02
2023-03-12T07:49:10.449Z,6.93
2023-03-12T07:52:12.920Z,8.27
2023-03-12T07:55:16.511Z,6.87
2023-03-12T07:58:19.139Z,7.70
2023-03-12T08:01:21.994Z,6.70
2023-03-12T08:04:24.833Z,7.35
2023-03-12T08:07:32.291Z,5.55
2023-03-12T08:10:36.153Z,6.22
2023-03-12T08:13:38.503Z,5.53
2023-03-12T08:16:41.176Z,6.37
2023-03-12T08:19:44.065Z,4.80
2023-03-12T08:22:46.838Z,6.75
2023-03-12T08:25:50.732Z,5.97
2023-03-12T08:28:53.464Z,5.28
2023-03-12T08:32:04.555Z,4.30
2023-03-12T08:35:10.251Z,5.87
2023-03-12T08:38:13.119Z,4.62
2023-03-12T08:41:16.134Z,5.85
2023-03-12T08:44:18.462Z,5.18
2023-03-12T08:47:21.062Z,4.85
2023-03-12T08:50:26.019Z,4.72
2023-03-12T08:53:28.742Z,7.82
2023-03-12T08:56:31.530Z,4.72
2023-03-12T08:59:34.298Z,4.70
2023-03-12T09:02:36.955Z,5.37
2023-03-12T09:05:39.602Z,6.07
2023-03-12T09:08:45.863Z,5.20
2023-03-12T09:11:48.559Z,4.70
2023-03-12T09:15:03.394Z,5.00
2023-03-12T09:18:06.537Z,6.32
2023-03-12T09:21:08.882Z,5.22
2023-03-12T09:24:12.110Z,5.18
2023-03-12T09:27:14.447Z,5.70
2023-03-12T09:30:20.764Z,4.55
2023-03-12T09:33:23.288Z,5.30
2023-03-12T09:36:25.990Z,3.97
2023-03-12T09:39:28.503Z,4.57
2023-03-12T09:43:15.236Z,5.12
2023-03-12T09:46:27.019Z,5.12
2023-03-12T09:49:41.000Z,7.85
2023-03-12T09:52:51.660Z,5.72
2023-03-12T09:55:57.241Z,5.40
2023-03-12T09:59:00.464Z,4.28
2023-03-12T10:02:15.695Z,5.12
2023-03-12T10:05:27.068Z,4.72
2023-03-12T10:08:59.291Z,3.78
2023-03-12T10:12:26.733Z,4.95
2023-03-12T10:15:35.354Z,3.20
2023-03-12T10:18:48.448Z,4.32
2023-03-12T10:22:14.274Z,3.62
2023-03-12T10:25:32.047Z,4.00
2023-03-12T10:28:40.932Z,3.53
2023-03-12T10:32:11.912Z,4.22
2023-03-12T10:35:21.960Z,3.45
2023-03-12T10:38:30.060Z,3.55
2023-03-12T10:41:34.872Z,4.78
2023-03-12T10:44:37.840Z,5.75
2023-03-12T10:47:44.723Z,3.97
2023-03-12T10:51:03.033Z,4.35
2023-03-12T10:54:22.837Z,4.10
2023-03-12T10:57:39.908Z,3.83
2023-03-12T11:00:56.808Z,4.35
2023-03-12T11:04:17.615Z,4.18
2023-03-12T11:07:44.560Z,3.17
2023-03-12T11:10:47.913Z,1.98
2023-03-12T11:14:08.497Z,2.93
2023-03-12T11:17:26.630Z,4.18
2023-03-12T11:20:30.226Z,2.75
2023-03-12T11:26:57.332Z,4.68
2023-03-12T11:30:02.753Z,3.78
2023-03-12T11:33:05.509Z,3.12
2023-03-12T11:36:28.470Z,2.97
2023-03-12T11:40:10.002Z,2.67
2023-03-12T11:43:42.650Z,2.42
2023-03-12T11:46:49.093Z,2.53
2023-03-12T11:50:14.366Z,2.30
2023-03-12T11:53:45.470Z,2.40
2023-03-12T11:57:23.452Z,2.80
2023-03-12T12:00:38.133Z,2.28
2023-03-12T12:04:03.792Z,2.37
2023-03-12T12:07:12.671Z,2.90
2023-03-12T12:10:40.373Z,2.30
2023-03-12T12:14:03.059Z,2.67
2023-03-12T12:17:25.436Z,2.17
2023-03-12T12:20:53.973Z,2.20
2023-03-12T12:24:18.116Z,1.67
2023-03-12T12:27:27.079Z,4.97
2023-03-12T12:30:54.871Z,2.40
2023-03-12T12:34:03.294Z,2.25
2023-03-12T12:37:36.407Z,2.97
2023-03-12T12:40:42.716Z,1.50
2023-03-12T12:43:50.728Z,3.17
2023-03-12T12:46:59.174Z,2.25
2023-03-12T12:50:03.737Z,2.15
2023-03-12T12:53:15.661Z,3.67
2023-03-12T12:56:33.127Z,1.45
2023-03-12T12:59:54.296Z,3.85
2023-03-12T13:02:57.916Z,2.25
2023-03-12T13:06:03.379Z,2.53
2023-03-12T13:09:20.454Z,2.00
2023-03-12T13:12:32.698Z,1.95
2023-03-12T13:15:40.640Z,1.55
2023-03-12T13:18:59.302Z,1.62
2023-03-12T13:22:15.523Z,2.53
2023-03-12T13:25:41.972Z,1.80
2023-03-12T13:29:06.071Z,1.52
2023-03-12T13:32:37.407Z,1.27
2023-03-12T13:35:41.379Z,1.75
2023-03-12T13:38:58.501Z,1.65
2023-03-12T13:42:21.756Z,2.35
2023-03-12T13:45:31.886Z,2.42
2023-03-12T13:48:40.123Z,2.03
2023-03-12T13:51:54.770Z,3.28
2023-03-12T13:55:06.338Z,2.83
2023-03-12T13:58:16.873Z,2.10
2023-03-12T14:01:22.196Z,2.28
2023-03-12T14:04:33.307Z,3.20
2023-03-12T14:08:07.058Z,2.30
2023-03-12T14:11:38.215Z,2.20
2023-03-12T14:15:05.118Z,2.97
2023-03-12T14:18:28.390Z,2.05
2023-03-12T14:21:35.877Z,3.15
2023-03-12T14:24:42.335Z,2.35
2023-03-12T14:27:47.845Z,3.35
2023-03-12T14:31:13.639Z,6.68
2023-03-12T14:34:22.463Z,2.90
2023-03-12T14:37:40.342Z,1.85
2023-03-12T14:41:13.394Z,1.45
2023-03-12T14:44:28.554Z,2.58
2023-03-12T14:47:39.475Z,2.17
2023-03-12T14:50:42.164Z,4.20
2023-03-12T14:53:44.690Z,1.85
2023-03-12T14:59:56.419Z,2.65
2023-03-12T15:03:04.475Z,2.15
2023-03-12T15:06:33.750Z,1.90
2023-03-12T15:09:37.194Z,2.87
2023-03-12T15:12:39.816Z,3.20
2023-03-12T15:15:46.925Z,2.05
2023-03-12T15:18:51.490Z,4.47
2023-03-12T15:21:55.970Z,2.53
2023-03-12T15:25:03.383Z,3.10
2023-03-12T15:28:16.382Z,2.40
2023-03-12T15:31:18.951Z,2.58
2023-03-12T15:34:27.534Z,2.47
2023-03-12T15:37:37.903Z,3.83
2023-03-12T15:40:40.933Z,2.83
2023-03-12T15:43:45.024Z,36.53
2023-03-12T15:46:57.513Z,4.47
2023-03-12T15:50:04.759Z,2.53
2023-03-12T15:53:25.822Z,4.68
2023-03-12T15:56:31.967Z,2.80
2023-03-12T15:59:34.615Z,3.55
2023-03-12T16:02:48.681Z,2.67
2023-03-12T16:05:51.509Z,2.47
2023-03-12T16:09:00.706Z,4.22
2023-03-12T16:12:03.879Z,2.47
2023-03-12T16:15:06.697Z,2.95
2023-03-12T16:18:18.575Z,2.30
2023-03-12T16:21:21.753Z,3.72
2023-03-12T16:24:24.409Z,3.85
2023-03-12T16:27:32.581Z,2.42
2023-03-12T16:30:36.912Z,2.55
2023-03-12T16:33:41.697Z,4.68
2023-03-12T16:36:44.493Z,3.20
2023-03-12T16:39:48.798Z,3.28
2023-03-12T16:42:54.555Z,4.45
2023-03-12T16:45:57.940Z,4.37
2023-03-12T16:49:01.051Z,3.90
2023-03-12T16:52:18.507Z,3.37
2023-03-12T16:55:25.640Z,4.12
2023-03-12T16:58:29.180Z,5.45
2023-03-12T17:01:32.005Z,6.07
2023-03-12T17:04:34.542Z,3.25
2023-03-12T17:07:37.427Z,4.45
2023-03-12T17:10:39.821Z,5.85
2023-03-12T17:13:43.226Z,3.85
2023-03-12T17:16:45.672Z,4.40
2023-03-12T17:19:48.242Z,4.55
2023-03-12T17:22:50.814Z,5.30
2023-03-12T17:25:53.462Z,4.75
2023-03-12T17:28:55.861Z,6.40
2023-03-12T17:31:58.490Z,3.75
2023-03-12T17:35:03.403Z,4.12
2023-03-12T17:38:06.081Z,3.60
2023-03-12T17:41:23.390Z,3.87
2023-03-12T17:44:34.592Z,5.75
2023-03-12T17:47:37.774Z,5.25
2023-03-12T17:50:43.237Z,4.10
2023-03-12T17:53:46.671Z,4.50
2023-03-12T17:56:49.389Z,4.57
2023-03-12T17:59:52.023Z,5.45
2023-03-12T18:02:54.740Z,5.65
2023-03-12T18:05:57.441Z,3.87
2023-03-12T18:08:59.758Z,7.40
2023-03-12T18:12:05.631Z,4.80
2023-03-12T18:15:09.549Z,5.57
2023-03-12T18:18:12.204Z,7.25
2023-03-12T18:21:14.506Z,6.55
2023-03-12T18:24:17.134Z,7.45
2023-03-12T18:27:19.492Z,8.18
2023-03-12T18:30:22.178Z,6.37
2023-03-12T18:33:24.506Z,6.05
2023-03-12T18:36:27.132Z,8.48
2023-03-12T18:39:29.605Z,7.47
2023-03-12T18:42:32.346Z,6.78
2023-03-12T18:45:34.737Z,5.87
2023-03-12T18:48:37.377Z,7.40
2023-03-12T18:51:39.703Z,6.40
2023-03-12T18:54:42.389Z,10.30
2023-03-12T18:57:46.326Z,8.13
2023-03-12T19:00:53.580Z,10.13
2023-03-12T19:03:56.033Z,9.13
2023-03-12T19:07:00.379Z,9.25
2023-03-12T19:13:05.578Z,12.85
2023-03-12T19:16:11.173Z,8.77
2023-03-12T19:19:15.256Z,8.57
2023-03-12T19:22:17.704Z,13.30
2023-03-12T19:25:20.445Z,11.73
2023-03-12T19:28:22.949Z,11.25
2023-03-12T19:31:25.870Z,13.75
2023-03-12T19:34:28.389Z,13.55
2023-03-12T19:37:31.022Z,15.50
2023-03-12T19:40:34.174Z,21.08
2023-03-12T19:43:38.534Z,17.75
2023-03-12T19:46:43.108Z,20.48
2023-03-12T19:49:45.950Z,18.73
2023-03-12T19:52:48.422Z,19.95
2023-03-12T19:55:51.488Z,18.73
2023-03-12T19:58:53.818Z,21.80
2023-03-12T20:01:56.554Z,22.77
2023-03-12T20:04:59.201Z,20.58
2023-03-12T20:08:03.106Z,16.92
2023-03-12T20:11:09.726Z,19.75
2023-03-12T20:14:12.078Z,23.92
2023-03-12T20:17:14.864Z,19.00
2023-03-12T20:20:17.332Z,19.33
2023-03-12T20:23:20.016Z,18.25
2023-03-12T20:26:22.997Z,21.62
2023-03-12T20:29:25.619Z,20.00
2023-03-12T20:32:28.789Z,21.35
2023-03-12T20:35:33.427Z,20.58
2023-03-12T20:38:36.166Z,22.98
2023-03-12T20:41:39.112Z,22.52
2023-03-12T20:44:41.563Z,24.17
2023-03-12T20:47:44.231Z,19.17
2023-03-12T20:50:48.933Z,21.58
2023-03-12T20:53:51.606Z,20.62
2023-03-12T20:56:55.276Z,20.42
2023-03-12T21:03:00.359Z,23.00
2023-03-12T21:06:03.699Z,28.80
2023-03-12T21:09:06.164Z,21.90
2023-03-12T21:12:08.788Z,20.30
2023-03-12T21:15:13.106Z,22.40
2023-03-12T21:18:16.740Z,23.45
2023-03-12T21:21:19.256Z,21.15
2023-03-12T21:24:21.935Z,23.12
2023-03-12T21:27:24.411Z,21.30
2023-03-12T21:30:27.233Z,25.73
2023-03-12T21:33:29.565Z,25.75
2023-03-12T21:36:32.157Z,27.62
2023-03-12T21:39:35.122Z,31.48
2023-03-12T21:42:37.777Z,33.47
2023-03-12T21:45:42.058Z,31.42
2023-03-12T21:48:46.484Z,33.30
2023-03-12T21:51:48.869Z,31.70
2023-03-12T21:54:51.535Z,25.65
2023-03-12T21:57:53.926Z,27.48
2023-03-12T22:01:13.040Z,28.23
2023-03-12T22:04:15.839Z,27.80
2023-03-12T22:07:18.204Z,31.05
2023-03-12T22:10:20.903Z,28.38
2023-03-12T22:13:23.705Z,26.92
2023-03-12T22:16:26.547Z,26.57
2023-03-12T22:19:28.888Z,26.87
2023-03-12T22:22:31.504Z,24.23
2023-03-12T22:25:34.546Z,24.00
2023-03-12T22:28:37.217Z,22.77
2023-03-12T22:31:39.641Z,24.20
2023-03-12T22:34:42.330Z,23.15
2023-03-12T22:37:45.404Z,23.62
2023-03-12T22:40:48.072Z,23.23
2023-03-12T22:43:52.852Z,21.25
2023-03-12T22:46:55.505Z,21.30
2023-03-12T22:49:58.454Z,19.15
2023-03-12T22:53:01.260Z,19.20
2023-03-12T22:56:08.964Z,19.62
2023-03-12T22:59:11.583Z,31.83
2023-03-12T23:02:13.917Z,15.85
2023-03-12T23:05:16.680Z,17.83
2023-03-12T23:08:19.235Z,16.02
2023-03-12T23:11:25.145Z,16.17
2023-03-12T23:14:27.484Z,16.05
2023-03-12T23:17:30.117Z,17.08
2023-03-12T23:20:32.486Z,12.27
2023-03-12T23:23:35.954Z,15.05
2023-03-12T23:26:38.711Z,16.53
2023-03-12T23:29:41.280Z,13.77
2023-03-12T23:32:43.745Z,18.23
2023-03-12T23:35:59.750Z,14.50
2023-03-12T23:39:03.547Z,13.62
2023-03-12T23:42:06.497Z,15.65
2023-03-12T23:45:10.237Z,17.02
2023-03-12T23:51:18.219Z,14.70
2023-03-12T23:54:23.122Z,14.77
2023-03-12T23:57:25.396Z,17.35
